MSC Leanne — 3EXH3 — position and weather

sailwx.info

Track history (hours):
 
Tides and Currents Weather Stations Pressure Air Temp Water Temp Dewpoint Dewpoint Depression Visibility Wind Speed Wind Dir Waves Ship Positions

MSC Leanne

Last reported at 2014-Sep-21 11:32 UTC. Time now 2014-Sep-21 12:10 UTC.
Position N 43°35' E 010°18'.

Length 294 m; draft 11.4 m.

Type: Ship (hazmat cat A). MMSI: 357723000.

Date/timePositionNaut miles runAvg speedWind from/ knotsBaromVisibWave heightAir tempDewpointWater temp
2014-Sep-21 11:32N 43°35' E 010°18'0 0.0
2014-Sep-21 10:32N 43°35' E 010°18'0 0.0
2014-Sep-21 09:32N 43°35' E 010°18'0 0.0
2014-Sep-21 08:32N 43°35' E 010°18'0 0.0
2014-Sep-21 07:26N 43°35' E 010°18'0 0.0
2014-Sep-21 06:34N 43°35' E 010°18'0 0.0
2014-Sep-21 05:33N 43°35' E 010°18'4 3.9
2014-Sep-21 04:34N 43°31' E 010°15'1 1.4
2014-Sep-21 03:32N 43°30' E 010°16'0 0.0
2014-Sep-21 02:32N 43°30' E 010°16'0 0.0
2014-Sep-21 01:32N 43°30' E 010°16'0 0.0
2014-Sep-21 00:29N 43°30' E 010°16'0 0.0
2014-Sep-20 23:32N 43°30' E 010°16'0 0.0
2014-Sep-20 22:32N 43°30' E 010°16'0 0.0
2014-Sep-20 21:32N 43°30' E 010°16'0 0.1
2014-Sep-20 20:32N 43°30' E 010°16'3 2.7
2014-Sep-20 19:33N 43°29' E 010°12'1514.7
2014-Sep-20 18:33N 43°35' E 009°54'1514.7
2014-Sep-20 17:33N 43°50' E 009°52'1313.0
2014-Sep-20 16:33N 44°03' E 009°53'0 0.0
2014-Sep-20 15:32N 44°03' E 009°53'0 0.0
2014-Sep-20 14:32N 44°03' E 009°53'0 0.0
2014-Sep-20 13:32N 44°03' E 009°53'0 0.0
2014-Sep-20 12:32N 44°03' E 009°53'0 0.1
2014-Sep-20 11:32N 44°03' E 009°54'0 0.0
2014-Sep-20 10:32N 44°03' E 009°54'0 0.0
2014-Sep-20 09:32N 44°03' E 009°53'0 0.0
2014-Sep-20 08:32N 44°03' E 009°54'0 0.0
2014-Sep-20 07:32N 44°03' E 009°54'0 0.0
2014-Sep-20 06:32N 44°03' E 009°54'0 0.1
2014-Sep-20 05:32N 44°03' E 009°53'0 0.0
2014-Sep-20 04:32N 44°03' E 009°54'0 0.1
2014-Sep-20 03:32N 44°03' E 009°53'0 0.0
2014-Sep-20 02:32N 44°03' E 009°53'0 0.1
2014-Sep-20 01:32N 44°03' E 009°53'0 0.1
2014-Sep-20 00:32N 44°03' E 009°54'0 0.0
2014-Sep-19 23:32N 44°03' E 009°54'0 0.0
2014-Sep-19 22:32N 44°03' E 009°54'0 0.0
2014-Sep-19 21:32N 44°03' E 009°54'0 0.0
2014-Sep-19 20:32N 44°03' E 009°54'0 0.0
2014-Sep-19 19:32N 44°03' E 009°54'0 0.0
2014-Sep-19 18:32N 44°03' E 009°53'0 0.0
2014-Sep-19 17:32N 44°03' E 009°54'0 0.0
2014-Sep-19 16:32N 44°03' E 009°53'0 0.1
2014-Sep-19 15:32N 44°03' E 009°54'0 0.1
2014-Sep-19 14:32N 44°03' E 009°53'0 0.0
2014-Sep-19 13:32N 44°03' E 009°53'0 0.1
2014-Sep-19 12:32N 44°03' E 009°53'0 0.1
2014-Sep-19 11:33N 44°03' E 009°53'4 4.3
2014-Sep-19 10:32N 43°59' E 009°51'0 0.0
2014-Sep-19 09:32N 43°59' E 009°51'0 0.1
2014-Sep-19 08:32N 43°59' E 009°51'0 0.0
2014-Sep-19 07:32N 43°59' E 009°51'0 0.0
2014-Sep-19 06:32N 43°59' E 009°51'0 0.0
2014-Sep-19 05:32N 43°59' E 009°51'0 0.0
2014-Sep-19 04:32N 43°59' E 009°51'0 0.0
2014-Sep-19 03:32N 43°59' E 009°51'0 0.0
2014-Sep-19 02:32N 43°59' E 009°51'0 0.0
2014-Sep-19 01:32N 43°59' E 009°51'0 0.1
2014-Sep-19 00:32N 43°59' E 009°51'0 0.0
2014-Sep-18 23:32N 43°59' E 009°51'0 0.1
2014-Sep-18 22:32N 43°59' E 009°51'0 0.0
2014-Sep-18 21:32N 43°59' E 009°51'0 0.1
2014-Sep-18 20:32N 43°59' E 009°51'0 0.1
2014-Sep-18 19:32N 43°59' E 009°51'0 0.0
2014-Sep-18 18:32N 43°59' E 009°51'0 0.0
2014-Sep-18 17:32N 43°59' E 009°51'0 0.0
2014-Sep-18 16:32N 43°59' E 009°51'0 0.0
2014-Sep-18 15:32N 43°59' E 009°51'0 0.0
2014-Sep-18 14:32N 43°59' E 009°51'0 0.0
2014-Sep-18 13:32N 43°59' E 009°51'0 0.0
2014-Sep-18 12:32N 43°59' E 009°51'0 0.0
2014-Sep-18 11:32N 43°59' E 009°51'0 0.0
2014-Sep-18 10:32N 43°59' E 009°51'0 0.0
2014-Sep-18 09:32N 43°59' E 009°51'0 0.0
2014-Sep-18 08:32N 43°59' E 009°51'0 0.1
2014-Sep-18 07:32N 43°59' E 009°51'0 0.0
2014-Sep-18 06:32N 43°59' E 009°51'0 0.0
2014-Sep-18 05:32N 43°59' E 009°51'0 0.0
2014-Sep-18 04:32N 43°59' E 009°51'0 0.0
2014-Sep-18 03:32N 43°58' E 009°51'0 0.0
2014-Sep-18 02:32N 43°59' E 009°51'0 0.0
2014-Sep-18 01:32N 43°58' E 009°51'0 0.0
2014-Sep-18 00:32N 43°59' E 009°51'0 0.0
2014-Sep-17 23:32N 43°59' E 009°51'0 0.0
2014-Sep-17 22:32N 43°59' E 009°51'0 0.0
2014-Sep-17 21:32N 43°58' E 009°51'0 0.0
2014-Sep-17 20:32N 43°59' E 009°51'0 0.1
2014-Sep-17 19:32N 43°59' E 009°51'0 0.3
2014-Sep-17 18:33N 43°59' E 009°52'7 6.8
2014-Sep-17 17:33N 44°06' E 009°51'1 0.9
2014-Sep-17 16:31N 44°06' E 009°51'0 0.0
2014-Sep-17 15:33N 44°06' E 009°51'0 0.0
2014-Sep-17 14:33N 44°06' E 009°51'0 0.0
2014-Sep-17 13:33N 44°06' E 009°51'0 0.0
2014-Sep-17 12:33N 44°06' E 009°51'0 0.0
2014-Sep-17 11:33N 44°06' E 009°51'0 0.0
2014-Sep-17 10:33N 44°06' E 009°51'0 0.0
2014-Sep-17 09:33N 44°06' E 009°51'0 0.0
2014-Sep-17 08:33N 44°06' E 009°51'0 0.0
2014-Sep-17 07:33N 44°06' E 009°51'0 0.0
2014-Sep-17 06:33N 44°06' E 009°51'0 0.0
2014-Sep-17 05:33N 44°06' E 009°51'0 0.0
2014-Sep-17 04:33N 44°06' E 009°51'0 0.0
2014-Sep-17 03:33N 44°06' E 009°51'0 0.0
2014-Sep-17 02:33N 44°06' E 009°51'0 0.0
2014-Sep-17 01:33N 44°06' E 009°51'0 0.0
2014-Sep-17 00:33N 44°06' E 009°51'0 0.0
2014-Sep-16 23:33N 44°06' E 009°51'0 0.0
2014-Sep-16 22:33N 44°06' E 009°51'0 0.0
2014-Sep-16 21:33N 44°06' E 009°51'0 0.0
2014-Sep-16 20:33N 44°06' E 009°51'0 0.0
2014-Sep-16 19:33N 44°06' E 009°51'0 0.0
2014-Sep-16 18:33N 44°06' E 009°51'0 0.0
2014-Sep-16 17:33N 44°06' E 009°51'0 0.0
2014-Sep-16 16:33N 44°06' E 009°51'0 0.0
2014-Sep-16 15:33N 44°06' E 009°51'0 0.0
2014-Sep-16 14:33N 44°06' E 009°51'0 0.0
2014-Sep-16 13:33N 44°06' E 009°51'0 0.0
2014-Sep-16 12:33N 44°06' E 009°51'0 0.4
2014-Sep-16 11:33N 44°06' E 009°51'5 5.0
2014-Sep-16 10:31N 44°02' E 009°55'0 0.1
2014-Sep-16 09:31N 44°02' E 009°55'0 0.1
2014-Sep-16 08:31N 44°02' E 009°55'0 0.0
2014-Sep-16 07:31N 44°02' E 009°55'0 0.1
2014-Sep-16 06:31N 44°02' E 009°55'5 5.0
2014-Sep-16 05:34N 43°58' E 009°60'1515.1
2014-Sep-16 04:33N 43°45' E 009°49'1716.5
2014-Sep-16 03:33N 43°29' E 009°45'1717.2
2014-Sep-16 02:33N 43°12' E 009°41'1717.0
2014-Sep-16 01:33N 42°55' E 009°41'2116.9
2014-Sep-16 00:17N 42°34' E 009°48'3214.2
2014-Sep-15 22:03N 42°12' E 010°18'166 6.5
2014-Sep-14 20:31N 40°42' E 013°23'2020.4
2014-Sep-14 19:31N 40°38' E 013°50'1818.3
2014-Sep-14 18:33N 40°44' E 014°12'8 7.2
2014-Sep-14 17:29N 40°50' E 014°17'0 0.0
2014-Sep-14 12:29N 40°50' E 014°17'0 0.0
2014-Sep-14 11:29N 40°50' E 014°17'1 0.1
2014-Sep-14 06:32N 40°50' E 014°17'6 6.0
2014-Sep-14 05:33N 40°44' E 014°16'1716.5
2014-Sep-14 04:33N 40°29' E 014°08'  
2014-Sep-11 21:15N 38°24' E 013°48'1216.8
2014-Sep-11 20:32N 38°25' E 013°33'1717.0
2014-Sep-11 19:33N 38°25' E 013°11'1717.2
2014-Sep-11 18:33N 38°24' E 012°49'1717.4
2014-Sep-11 17:33N 38°22' E 012°27'7017.4
2014-Sep-11 13:33N 38°17' E 010°59'1917.5
2014-Sep-11 12:29N 38°15' E 010°35'  
Track history (hours):
 
Tides and Currents Weather Stations Pressure Air Temp Water Temp Dewpoint Dewpoint Depression Visibility Wind Speed Wind Dir Waves Ship Positions

MSC Leanne

Last reported at 2014-Sep-21 11:32 UTC. Time now 2014-Sep-21 12:10 UTC.
Position N 43°35' E 010°18'.

Length 294 m; draft 11.4 m.

Type: Ship (hazmat cat A). MMSI: 357723000.

Date/timePositionNaut miles runAvg speedWind from/ knotsBaromVisibWave heightAir tempDewpointWater temp
2014-Sep-21 11:32N 43°35' E 010°18'0 0.0
2014-Sep-21 10:32N 43°35' E 010°18'0 0.0
2014-Sep-21 09:32N 43°35' E 010°18'0 0.0
2014-Sep-21 08:32N 43°35' E 010°18'0 0.0
2014-Sep-21 07:26N 43°35' E 010°18'0 0.0
2014-Sep-21 06:34N 43°35' E 010°18'0 0.0
2014-Sep-21 05:33N 43°35' E 010°18'4 3.9
2014-Sep-21 04:34N 43°31' E 010°15'1 1.4
2014-Sep-21 03:32N 43°30' E 010°16'0 0.0
2014-Sep-21 02:32N 43°30' E 010°16'0 0.0
2014-Sep-21 01:32N 43°30' E 010°16'0 0.0
2014-Sep-21 00:29N 43°30' E 010°16'0 0.0
2014-Sep-20 23:32N 43°30' E 010°16'0 0.0
2014-Sep-20 22:32N 43°30' E 010°16'0 0.0
2014-Sep-20 21:32N 43°30' E 010°16'0 0.1
2014-Sep-20 20:32N 43°30' E 010°16'3 2.7
2014-Sep-20 19:33N 43°29' E 010°12'1514.7
2014-Sep-20 18:33N 43°35' E 009°54'1514.7
2014-Sep-20 17:33N 43°50' E 009°52'1313.0
2014-Sep-20 16:33N 44°03' E 009°53'0 0.0
2014-Sep-20 15:32N 44°03' E 009°53'0 0.0
2014-Sep-20 14:32N 44°03' E 009°53'0 0.0
2014-Sep-20 13:32N 44°03' E 009°53'0 0.0
2014-Sep-20 12:32N 44°03' E 009°53'0 0.1
2014-Sep-20 11:32N 44°03' E 009°54'0 0.0
2014-Sep-20 10:32N 44°03' E 009°54'0 0.0
2014-Sep-20 09:32N 44°03' E 009°53'0 0.0
2014-Sep-20 08:32N 44°03' E 009°54'0 0.0
2014-Sep-20 07:32N 44°03' E 009°54'0 0.0
2014-Sep-20 06:32N 44°03' E 009°54'0 0.1
2014-Sep-20 05:32N 44°03' E 009°53'0 0.0
2014-Sep-20 04:32N 44°03' E 009°54'0 0.1
2014-Sep-20 03:32N 44°03' E 009°53'0 0.0
2014-Sep-20 02:32N 44°03' E 009°53'0 0.1
2014-Sep-20 01:32N 44°03' E 009°53'0 0.1
2014-Sep-20 00:32N 44°03' E 009°54'0 0.0
2014-Sep-19 23:32N 44°03' E 009°54'0 0.0
2014-Sep-19 22:32N 44°03' E 009°54'0 0.0
2014-Sep-19 21:32N 44°03' E 009°54'0 0.0
2014-Sep-19 20:32N 44°03' E 009°54'0 0.0
2014-Sep-19 19:32N 44°03' E 009°54'0 0.0
2014-Sep-19 18:32N 44°03' E 009°53'0 0.0
2014-Sep-19 17:32N 44°03' E 009°54'0 0.0
2014-Sep-19 16:32N 44°03' E 009°53'0 0.1
2014-Sep-19 15:32N 44°03' E 009°54'0 0.1
2014-Sep-19 14:32N 44°03' E 009°53'0 0.0
2014-Sep-19 13:32N 44°03' E 009°53'0 0.1
2014-Sep-19 12:32N 44°03' E 009°53'0 0.1
2014-Sep-19 11:33N 44°03' E 009°53'4 4.3
2014-Sep-19 10:32N 43°59' E 009°51'0 0.0
2014-Sep-19 09:32N 43°59' E 009°51'0 0.1
2014-Sep-19 08:32N 43°59' E 009°51'0 0.0
2014-Sep-19 07:32N 43°59' E 009°51'0 0.0
2014-Sep-19 06:32N 43°59' E 009°51'0 0.0
2014-Sep-19 05:32N 43°59' E 009°51'0 0.0
2014-Sep-19 04:32N 43°59' E 009°51'0 0.0
2014-Sep-19 03:32N 43°59' E 009°51'0 0.0
2014-Sep-19 02:32N 43°59' E 009°51'0 0.0
2014-Sep-19 01:32N 43°59' E 009°51'0 0.1
2014-Sep-19 00:32N 43°59' E 009°51'0 0.0
2014-Sep-18 23:32N 43°59' E 009°51'0 0.1
2014-Sep-18 22:32N 43°59' E 009°51'0 0.0
2014-Sep-18 21:32N 43°59' E 009°51'0 0.1
2014-Sep-18 20:32N 43°59' E 009°51'0 0.1
2014-Sep-18 19:32N 43°59' E 009°51'0 0.0
2014-Sep-18 18:32N 43°59' E 009°51'0 0.0
2014-Sep-18 17:32N 43°59' E 009°51'0 0.0
2014-Sep-18 16:32N 43°59' E 009°51'0 0.0
2014-Sep-18 15:32N 43°59' E 009°51'0 0.0
2014-Sep-18 14:32N 43°59' E 009°51'0 0.0
2014-Sep-18 13:32N 43°59' E 009°51'0 0.0
2014-Sep-18 12:32N 43°59' E 009°51'0 0.0
2014-Sep-18 11:32N 43°59' E 009°51'0 0.0
2014-Sep-18 10:32N 43°59' E 009°51'0 0.0
2014-Sep-18 09:32N 43°59' E 009°51'0 0.0
2014-Sep-18 08:32N 43°59' E 009°51'0 0.1
2014-Sep-18 07:32N 43°59' E 009°51'0 0.0
2014-Sep-18 06:32N 43°59' E 009°51'0 0.0
2014-Sep-18 05:32N 43°59' E 009°51'0 0.0
2014-Sep-18 04:32N 43°59' E 009°51'0 0.0
2014-Sep-18 03:32N 43°58' E 009°51'0 0.0
2014-Sep-18 02:32N 43°59' E 009°51'0 0.0
2014-Sep-18 01:32N 43°58' E 009°51'0 0.0
2014-Sep-18 00:32N 43°59' E 009°51'0 0.0
2014-Sep-17 23:32N 43°59' E 009°51'0 0.0
2014-Sep-17 22:32N 43°59' E 009°51'0 0.0
2014-Sep-17 21:32N 43°58' E 009°51'0 0.0
2014-Sep-17 20:32N 43°59' E 009°51'0 0.1
2014-Sep-17 19:32N 43°59' E 009°51'0 0.3
2014-Sep-17 18:33N 43°59' E 009°52'7 6.8
2014-Sep-17 17:33N 44°06' E 009°51'1 0.9
2014-Sep-17 16:31N 44°06' E 009°51'0 0.0
2014-Sep-17 15:33N 44°06' E 009°51'0 0.0
2014-Sep-17 14:33N 44°06' E 009°51'0 0.0
2014-Sep-17 13:33N 44°06' E 009°51'0 0.0
2014-Sep-17 12:33N 44°06' E 009°51'0 0.0
2014-Sep-17 11:33N 44°06' E 009°51'0 0.0
2014-Sep-17 10:33N 44°06' E 009°51'0 0.0
2014-Sep-17 09:33N 44°06' E 009°51'0 0.0
2014-Sep-17 08:33N 44°06' E 009°51'0 0.0
2014-Sep-17 07:33N 44°06' E 009°51'0 0.0
2014-Sep-17 06:33N 44°06' E 009°51'0 0.0
2014-Sep-17 05:33N 44°06' E 009°51'0 0.0
2014-Sep-17 04:33N 44°06' E 009°51'0 0.0
2014-Sep-17 03:33N 44°06' E 009°51'0 0.0
2014-Sep-17 02:33N 44°06' E 009°51'0 0.0
2014-Sep-17 01:33N 44°06' E 009°51'0 0.0
2014-Sep-17 00:33N 44°06' E 009°51'0 0.0
2014-Sep-16 23:33N 44°06' E 009°51'0 0.0
2014-Sep-16 22:33N 44°06' E 009°51'0 0.0
2014-Sep-16 21:33N 44°06' E 009°51'0 0.0
2014-Sep-16 20:33N 44°06' E 009°51'0 0.0
2014-Sep-16 19:33N 44°06' E 009°51'0 0.0
2014-Sep-16 18:33N 44°06' E 009°51'0 0.0
2014-Sep-16 17:33N 44°06' E 009°51'0 0.0
2014-Sep-16 16:33N 44°06' E 009°51'0 0.0
2014-Sep-16 15:33N 44°06' E 009°51'0 0.0
2014-Sep-16 14:33N 44°06' E 009°51'0 0.0
2014-Sep-16 13:33N 44°06' E 009°51'0 0.0
2014-Sep-16 12:33N 44°06' E 009°51'0 0.4
2014-Sep-16 11:33N 44°06' E 009°51'5 5.0
2014-Sep-16 10:31N 44°02' E 009°55'0 0.1
2014-Sep-16 09:31N 44°02' E 009°55'0 0.1
2014-Sep-16 08:31N 44°02' E 009°55'0 0.0
2014-Sep-16 07:31N 44°02' E 009°55'0 0.1
2014-Sep-16 06:31N 44°02' E 009°55'5 5.0
2014-Sep-16 05:34N 43°58' E 009°60'1515.1
2014-Sep-16 04:33N 43°45' E 009°49'1716.5
2014-Sep-16 03:33N 43°29' E 009°45'1717.2
2014-Sep-16 02:33N 43°12' E 009°41'1717.0
2014-Sep-16 01:33N 42°55' E 009°41'2116.9
2014-Sep-16 00:17N 42°34' E 009°48'3214.2
2014-Sep-15 22:03N 42°12' E 010°18'166 6.5
2014-Sep-14 20:31N 40°42' E 013°23'2020.4
2014-Sep-14 19:31N 40°38' E 013°50'1818.3
2014-Sep-14 18:33N 40°44' E 014°12'8 7.2
2014-Sep-14 17:29N 40°50' E 014°17'0 0.0
2014-Sep-14 12:29N 40°50' E 014°17'0 0.0
2014-Sep-14 11:29N 40°50' E 014°17'1 0.1
2014-Sep-14 06:32N 40°50' E 014°17'6 6.0
2014-Sep-14 05:33N 40°44' E 014°16'1716.5
2014-Sep-14 04:33N 40°29' E 014°08'  
2014-Sep-11 21:15N 38°24' E 013°48'1216.8
2014-Sep-11 20:32N 38°25' E 013°33'1717.0
2014-Sep-11 19:33N 38°25' E 013°11'1717.2
2014-Sep-11 18:33N 38°24' E 012°49'1717.4
2014-Sep-11 17:33N 38°22' E 012°27'7017.4
2014-Sep-11 13:33N 38°17' E 010°59'1917.5
2014-Sep-11 12:29N 38°15' E 010°35'  

Dump ship's entire track history